sensor_id;sensor_type;location;lat;lon;timestamp;P1;durP1;ratioP1;P2;durP2;ratioP2
43664;SDS011;29263;48.172;11.484;2022-08-18T13:31:31;6.88;;;6.25;;
43664;SDS011;29263;48.172;11.484;2022-08-18T13:34:45;8.88;;;4.32;;
43664;SDS011;29263;48.172;11.484;2022-08-18T13:37:11;4.63;;;4.13;;
43664;SDS011;29263;48.172;11.484;2022-08-18T13:39:36;5.22;;;4.63;;
43664;SDS011;29263;48.172;11.484;2022-08-18T13:42:02;7.47;;;4.15;;
43664;SDS011;29263;48.172;11.484;2022-08-18T13:44:28;9.27;;;4.05;;
43664;SDS011;29263;48.172;11.484;2022-08-18T13:46:53;6.55;;;4.22;;
43664;SDS011;29263;48.172;11.484;2022-08-18T13:49:20;5.72;;;4.38;;
43664;SDS011;29263;48.172;11.484;2022-08-18T13:51:48;5.95;;;4.55;;
43664;SDS011;29263;48.172;11.484;2022-08-18T13:54:22;6.65;;;3.75;;
43664;SDS011;29263;48.172;11.484;2022-08-18T13:56:54;4.88;;;3.92;;
43664;SDS011;29263;48.172;11.484;2022-08-18T13:59:20;6.00;;;4.13;;
43664;SDS011;29263;48.172;11.484;2022-08-18T14:01:47;4.93;;;3.88;;
43664;SDS011;29263;48.172;11.484;2022-08-18T14:04:14;5.50;;;3.80;;
43664;SDS011;29263;48.172;11.484;2022-08-18T14:06:40;8.55;;;4.50;;
43664;SDS011;29263;48.172;11.484;2022-08-18T14:09:06;4.95;;;3.65;;
43664;SDS011;29263;48.172;11.484;2022-08-18T14:11:32;5.70;;;3.80;;
43664;SDS011;29263;48.172;11.484;2022-08-18T14:14:01;5.28;;;4.20;;
43664;SDS011;29263;48.172;11.484;2022-08-18T14:16:28;6.93;;;4.05;;
43664;SDS011;29263;48.172;11.484;2022-08-18T14:18:55;4.05;;;3.65;;
43664;SDS011;29263;48.172;11.484;2022-08-18T14:21:40;8.75;;;4.57;;
43664;SDS011;29263;48.172;11.484;2022-08-18T14:24:27;5.82;;;4.90;;
43664;SDS011;29263;48.172;11.484;2022-08-18T14:27:12;5.25;;;4.38;;
43664;SDS011;29263;48.172;11.484;2022-08-18T14:29:38;5.93;;;4.35;;
43664;SDS011;29263;48.172;11.484;2022-08-18T14:32:06;4.97;;;3.92;;
43664;SDS011;29263;48.172;11.484;2022-08-18T14:34:32;4.82;;;4.18;;
43664;SDS011;29263;48.172;11.484;2022-08-18T14:36:58;7.70;;;5.68;;
43664;SDS011;29263;48.172;11.484;2022-08-18T14:39:24;4.80;;;4.05;;
43664;SDS011;29263;48.172;11.484;2022-08-18T14:41:49;5.25;;;3.75;;
43664;SDS011;29263;48.172;11.484;2022-08-18T14:44:15;5.30;;;4.15;;
43664;SDS011;29263;48.172;11.484;2022-08-18T14:46:41;6.85;;;4.32;;
43664;SDS011;29263;48.172;11.484;2022-08-18T14:49:11;5.97;;;4.65;;
43664;SDS011;29263;48.172;11.484;2022-08-18T14:51:38;5.88;;;4.32;;
43664;SDS011;29263;48.172;11.484;2022-08-18T14:54:07;4.78;;;4.15;;
43664;SDS011;29263;48.172;11.484;2022-08-18T14:56:34;7.32;;;5.00;;
43664;SDS011;29263;48.172;11.484;2022-08-18T14:59:00;5.57;;;4.60;;
43664;SDS011;29263;48.172;11.484;2022-08-18T15:01:29;5.40;;;4.20;;
43664;SDS011;29263;48.172;11.484;2022-08-18T15:03:56;8.57;;;4.18;;
43664;SDS011;29263;48.172;11.484;2022-08-18T15:06:22;6.05;;;4.10;;
43664;SDS011;29263;48.172;11.484;2022-08-18T15:08:47;5.18;;;4.18;;
43664;SDS011;29263;48.172;11.484;2022-08-18T15:11:13;5.53;;;4.15;;
43664;SDS011;29263;48.172;11.484;2022-08-18T15:13:40;4.18;;;3.78;;
43664;SDS011;29263;48.172;11.484;2022-08-18T15:16:08;5.80;;;4.30;;
43664;SDS011;29263;48.172;11.484;2022-08-18T15:18:37;7.30;;;3.95;;
43664;SDS011;29263;48.172;11.484;2022-08-18T15:21:06;7.07;;;3.78;;
43664;SDS011;29263;48.172;11.484;2022-08-18T15:23:50;7.68;;;4.65;;
43664;SDS011;29263;48.172;11.484;2022-08-18T15:26:34;7.03;;;3.47;;
43664;SDS011;29263;48.172;11.484;2022-08-18T15:29:02;8.25;;;4.07;;
43664;SDS011;29263;48.172;11.484;2022-08-18T15:33:58;5.18;;;3.67;;
43664;SDS011;29263;48.172;11.484;2022-08-18T15:36:24;6.28;;;4.38;;
43664;SDS011;29263;48.172;11.484;2022-08-18T15:38:49;4.13;;;3.78;;
43664;SDS011;29263;48.172;11.484;2022-08-18T15:41:36;5.53;;;3.88;;
43664;SDS011;29263;48.172;11.484;2022-08-18T15:44:04;5.38;;;4.10;;
43664;SDS011;29263;48.172;11.484;2022-08-18T15:46:32;4.80;;;4.00;;
43664;SDS011;29263;48.172;11.484;2022-08-18T15:48:59;4.63;;;3.45;;
43664;SDS011;29263;48.172;11.484;2022-08-18T15:51:25;6.10;;;3.72;;
43664;SDS011;29263;48.172;11.484;2022-08-18T15:53:51;6.43;;;4.00;;
43664;SDS011;29263;48.172;11.484;2022-08-18T15:56:18;7.07;;;4.63;;
43664;SDS011;29263;48.172;11.484;2022-08-18T15:58:45;7.25;;;4.40;;
43664;SDS011;29263;48.172;11.484;2022-08-18T16:01:12;7.82;;;5.07;;
43664;SDS011;29263;48.172;11.484;2022-08-18T16:03:38;5.53;;;4.85;;
43664;SDS011;29263;48.172;11.484;2022-08-18T16:06:04;5.60;;;4.63;;
43664;SDS011;29263;48.172;11.484;2022-08-18T16:08:32;4.25;;;3.92;;
43664;SDS011;29263;48.172;11.484;2022-08-18T16:11:04;4.45;;;4.05;;
43664;SDS011;29263;48.172;11.484;2022-08-18T16:13:32;14.30;;;5.15;;
43664;SDS011;29263;48.172;11.484;2022-08-18T16:15:58;4.50;;;4.10;;
43664;SDS011;29263;48.172;11.484;2022-08-18T16:18:23;8.13;;;4.75;;
43664;SDS011;29263;48.172;11.484;2022-08-18T16:20:51;6.03;;;4.78;;
43664;SDS011;29263;48.172;11.484;2022-08-18T16:23:16;7.63;;;4.90;;
43664;SDS011;29263;48.172;11.484;2022-08-18T16:25:42;5.25;;;4.50;;
43664;SDS011;29263;48.172;11.484;2022-08-18T16:28:09;5.97;;;5.38;;
43664;SDS011;29263;48.172;11.484;2022-08-18T16:30:37;9.38;;;4.60;;
43664;SDS011;29263;48.172;11.484;2022-08-18T16:33:04;7.50;;;4.68;;
43664;SDS011;29263;48.172;11.484;2022-08-18T16:35:31;5.47;;;4.97;;
43664;SDS011;29263;48.172;11.484;2022-08-18T16:38:01;6.18;;;4.45;;
43664;SDS011;29263;48.172;11.484;2022-08-18T16:40:29;4.80;;;4.40;;
43664;SDS011;29263;48.172;11.484;2022-08-18T16:42:54;5.68;;;5.03;;
43664;SDS011;29263;48.172;11.484;2022-08-18T16:45:20;6.05;;;4.53;;
43664;SDS011;29263;48.172;11.484;2022-08-18T16:47:46;6.13;;;5.47;;
43664;SDS011;29263;48.172;11.484;2022-08-18T16:50:13;5.38;;;4.88;;
43664;SDS011;29263;48.172;11.484;2022-08-18T16:52:40;6.97;;;5.40;;
43664;SDS011;29263;48.172;11.484;2022-08-18T16:55:07;6.55;;;5.65;;
43664;SDS011;29263;48.172;11.484;2022-08-18T16:57:39;6.22;;;5.63;;
43664;SDS011;29263;48.172;11.484;2022-08-18T17:00:25;6.05;;;5.45;;
43664;SDS011;29263;48.172;11.484;2022-08-18T17:03:10;7.78;;;5.28;;
43664;SDS011;29263;48.172;11.484;2022-08-18T17:06:05;7.22;;;5.60;;
43664;SDS011;29263;48.172;11.484;2022-08-18T17:08:33;6.33;;;5.73;;
43664;SDS011;29263;48.172;11.484;2022-08-18T17:11:00;8.43;;;5.70;;
43664;SDS011;29263;48.172;11.484;2022-08-18T17:13:26;7.88;;;5.82;;
43664;SDS011;29263;48.172;11.484;2022-08-18T17:15:53;7.75;;;5.78;;
43664;SDS011;29263;48.172;11.484;2022-08-18T17:18:19;6.07;;;5.30;;
43664;SDS011;29263;48.172;11.484;2022-08-18T17:20:45;7.10;;;5.25;;
43664;SDS011;29263;48.172;11.484;2022-08-18T17:23:11;6.18;;;5.45;;
43664;SDS011;29263;48.172;11.484;2022-08-18T17:25:36;7.38;;;6.35;;
43664;SDS011;29263;48.172;11.484;2022-08-18T17:28:02;6.80;;;5.43;;
43664;SDS011;29263;48.172;11.484;2022-08-18T17:30:32;7.03;;;6.07;;
43664;SDS011;29263;48.172;11.484;2022-08-18T17:33:02;8.73;;;6.80;;
43664;SDS011;29263;48.172;11.484;2022-08-18T17:35:37;9.63;;;6.03;;
43664;SDS011;29263;48.172;11.484;2022-08-18T17:40:38;9.88;;;6.53;;
43664;SDS011;29263;48.172;11.484;2022-08-18T17:49:36;10.10;;;8.20;;
43664;SDS011;29263;48.172;11.484;2022-08-18T17:55:21;9.40;;;7.32;;
43664;SDS011;29263;48.172;11.484;2022-08-18T17:57:54;5.45;;;3.67;;
43664;SDS011;29263;48.172;11.484;2022-08-18T18:00:26;4.30;;;2.60;;
43664;SDS011;29263;48.172;11.484;2022-08-18T18:02:54;2.83;;;1.75;;
43664;SDS011;29263;48.172;11.484;2022-08-18T18:05:20;3.15;;;1.42;;
43664;SDS011;29263;48.172;11.484;2022-08-18T18:17:50;2.50;;;1.05;;
43664;SDS011;29263;48.172;11.484;2022-08-18T18:23:38;2.83;;;1.17;;
43664;SDS011;29263;48.172;11.484;2022-08-18T18:29:28;1.40;;;1.17;;
43664;SDS011;29263;48.172;11.484;2022-08-18T18:40:52;2.97;;;2.45;;
43664;SDS011;29263;48.172;11.484;2022-08-18T18:43:20;4.15;;;2.88;;
43664;SDS011;29263;48.172;11.484;2022-08-18T19:11:32;3.28;;;2.00;;
43664;SDS011;29263;48.172;11.484;2022-08-18T19:24:23;2.13;;;1.55;;
43664;SDS011;29263;48.172;11.484;2022-08-18T19:36:13;2.63;;;2.22;;
43664;SDS011;29263;48.172;11.484;2022-08-18T19:39:20;3.28;;;2.72;;
43664;SDS011;29263;48.172;11.484;2022-08-18T19:45:50;5.53;;;3.35;;
43664;SDS011;29263;48.172;11.484;2022-08-18T19:51:43;4.03;;;2.38;;
43664;SDS011;29263;48.172;11.484;2022-08-18T20:15:56;4.30;;;2.40;;
43664;SDS011;29263;48.172;11.484;2022-08-18T20:19:00;3.10;;;2.25;;
43664;SDS011;29263;48.172;11.484;2022-08-18T20:24:59;3.85;;;2.50;;
43664;SDS011;29263;48.172;11.484;2022-08-18T20:31:04;6.68;;;4.05;;
43664;SDS011;29263;48.172;11.484;2022-08-18T21:18:21;19.23;;;14.20;;
43664;SDS011;29263;48.172;11.484;2022-08-18T21:20:50;21.80;;;14.80;;
43664;SDS011;29263;48.172;11.484;2022-08-18T21:23:30;19.38;;;13.93;;
43664;SDS011;29263;48.172;11.484;2022-08-18T21:29:37;22.88;;;15.20;;
43664;SDS011;29263;48.172;11.484;2022-08-18T21:41:01;19.80;;;14.73;;
43664;SDS011;29263;48.172;11.484;2022-08-18T21:43:43;19.88;;;13.13;;
43664;SDS011;29263;48.172;11.484;2022-08-18T21:46:12;21.63;;;14.30;;
43664;SDS011;29263;48.172;11.484;2022-08-18T21:49:28;18.65;;;13.85;;
43664;SDS011;29263;48.172;11.484;2022-08-18T21:55:24;16.63;;;12.65;;
43664;SDS011;29263;48.172;11.484;2022-08-18T22:01:36;15.48;;;12.20;;
43664;SDS011;29263;48.172;11.484;2022-08-18T22:21:08;12.57;;;9.90;;
43664;SDS011;29263;48.172;11.484;2022-08-18T22:28:06;14.10;;;8.95;;
43664;SDS011;29263;48.172;11.484;2022-08-18T22:33:59;9.63;;;8.27;;
43664;SDS011;29263;48.172;11.484;2022-08-18T22:40:00;8.95;;;6.80;;
43664;SDS011;29263;48.172;11.484;2022-08-18T22:42:30;8.32;;;6.20;;
43664;SDS011;29263;48.172;11.484;2022-08-18T22:44:58;8.07;;;6.28;;
43664;SDS011;29263;48.172;11.484;2022-08-18T22:47:25;7.45;;;5.25;;
43664;SDS011;29263;48.172;11.484;2022-08-18T22:49:51;6.68;;;5.32;;
43664;SDS011;29263;48.172;11.484;2022-08-18T22:58:12;6.63;;;4.32;;
43664;SDS011;29263;48.172;11.484;2022-08-18T23:03:25;6.40;;;4.30;;
43664;SDS011;29263;48.172;11.484;2022-08-18T23:05:50;6.95;;;4.35;;
43664;SDS011;29263;48.172;11.484;2022-08-18T23:08:18;5.28;;;4.38;;
43664;SDS011;29263;48.172;11.484;2022-08-18T23:10:45;6.15;;;4.72;;
43664;SDS011;29263;48.172;11.484;2022-08-18T23:13:11;5.55;;;4.70;;
43664;SDS011;29263;48.172;11.484;2022-08-18T23:15:36;5.95;;;4.70;;
43664;SDS011;29263;48.172;11.484;2022-08-18T23:18:23;7.13;;;4.47;;
43664;SDS011;29263;48.172;11.484;2022-08-18T23:20:52;5.65;;;4.43;;
43664;SDS011;29263;48.172;11.484;2022-08-18T23:23:41;4.35;;;3.90;;
43664;SDS011;29263;48.172;11.484;2022-08-18T23:29:29;6.25;;;4.72;;
43664;SDS011;29263;48.172;11.484;2022-08-18T23:31:54;5.45;;;4.20;;
43664;SDS011;29263;48.172;11.484;2022-08-18T23:34:21;5.82;;;4.53;;
43664;SDS011;29263;48.172;11.484;2022-08-18T23:36:54;7.18;;;4.25;;
43664;SDS011;29263;48.172;11.484;2022-08-18T23:39:23;5.93;;;4.47;;
43664;SDS011;29263;48.172;11.484;2022-08-18T23:41:49;7.53;;;4.13;;
43664;SDS011;29263;48.172;11.484;2022-08-18T23:44:18;6.53;;;4.47;;
43664;SDS011;29263;48.172;11.484;2022-08-18T23:46:44;6.00;;;4.40;;
43664;SDS011;29263;48.172;11.484;2022-08-18T23:49:11;5.65;;;4.55;;
43664;SDS011;29263;48.172;11.484;2022-08-18T23:51:39;6.05;;;4.80;;
43664;SDS011;29263;48.172;11.484;2022-08-18T23:54:16;5.20;;;4.60;;
43664;SDS011;29263;48.172;11.484;2022-08-18T23:56:46;5.95;;;4.75;;
43664;SDS011;29263;48.172;11.484;2022-08-18T23:59:12;6.85;;;4.57;;
